Terminal Aerodrome Forecast
Issued by NWS Northern Indiana

Home | Current Version | Previous Version | Graphics & Text | Print | Product List | Glossary On
Versions: 1 2 3 4 5 6 7 8 9 10 11 12 13 14 15 16
000
FTUS43 KIWX 280500
TAFFWA
TAF
KFWA 280531Z 2806/2906 30010KT P6SM BKN015
     FM281400 34014G22KT P6SM BKN025
     FM281900 33014G22KT P6SM SCT035
     FM290000 32005KT P6SM SKC=

USA.gov is the U.S. government's official web portal to all federal, state and local government web resources and services.